createdAt,value
2023-04-16T00:03:00.998Z,42.78
2023-04-16T00:08:29.060Z,38.33
2023-04-16T00:13:56.060Z,38.15
2023-04-16T00:19:23.014Z,40.22
2023-04-16T00:24:51.372Z,42.33
2023-04-16T00:30:19.386Z,48.47
2023-04-16T00:35:51.469Z,56.50
2023-04-16T00:41:19.167Z,58.45
2023-04-16T00:46:47.883Z,54.08
2023-04-16T00:52:15.721Z,59.97
2023-04-16T00:57:42.931Z,55.00
2023-04-16T01:08:39.183Z,56.15
2023-04-16T01:14:06.514Z,56.00
2023-04-16T01:19:36.539Z,53.45
2023-04-16T01:25:04.774Z,58.20
2023-04-16T01:30:32.307Z,55.33
2023-04-16T01:36:14.190Z,56.25
2023-04-16T01:41:41.940Z,55.20
2023-04-16T01:47:09.217Z,53.30
2023-04-16T01:52:37.845Z,53.13
2023-04-16T01:58:04.976Z,54.13
2023-04-16T02:03:36.065Z,62.15
2023-04-16T02:09:04.562Z,59.38
2023-04-16T02:14:32.874Z,56.28
2023-04-16T02:20:00.449Z,56.05
2023-04-16T02:25:28.277Z,65.63
2023-04-16T02:30:57.584Z,62.80
2023-04-16T02:36:27.690Z,59.90
2023-04-16T02:41:56.520Z,58.92
2023-04-16T02:47:23.400Z,64.28
2023-04-16T02:52:51.801Z,58.97
2023-04-16T02:58:21.286Z,68.95
2023-04-16T03:03:48.291Z,70.32
2023-04-16T03:09:15.383Z,79.90
2023-04-16T03:14:42.591Z,91.30
2023-04-16T03:20:10.498Z,89.10
2023-04-16T03:25:37.472Z,84.15
2023-04-16T03:31:04.565Z,74.63
2023-04-16T03:36:32.830Z,70.53
2023-04-16T03:42:00.248Z,71.35
2023-04-16T03:47:28.945Z,61.17
2023-04-16T03:53:00.211Z,68.57
2023-04-16T03:58:27.295Z,66.18
2023-04-16T04:03:56.695Z,64.82
2023-04-16T04:09:24.445Z,60.05
2023-04-16T04:14:53.515Z,64.55
2023-04-16T04:20:21.684Z,58.08
2023-04-16T04:25:49.095Z,56.50
2023-04-16T04:31:16.793Z,55.85
2023-04-16T04:36:44.873Z,63.70
2023-04-16T04:42:13.391Z,57.75
2023-04-16T04:47:41.511Z,65.57
2023-04-16T04:53:11.783Z,61.03
2023-04-16T04:58:38.900Z,58.88
2023-04-16T05:04:06.912Z,60.63
2023-04-16T05:09:34.854Z,55.55
2023-04-16T05:15:02.766Z,52.00
2023-04-16T05:20:30.714Z,57.95
2023-04-16T05:25:57.504Z,51.72
2023-04-16T05:31:24.825Z,54.35
2023-04-16T05:36:51.858Z,64.57
2023-04-16T05:42:18.926Z,52.90
2023-04-16T05:47:46.196Z,51.25
2023-04-16T05:53:14.479Z,45.58
2023-04-16T05:58:42.051Z,43.20
2023-04-16T06:04:10.083Z,36.97
2023-04-16T06:09:38.283Z,31.77
2023-04-16T06:15:06.662Z,37.00
2023-04-16T06:20:33.955Z,32.53
2023-04-16T06:26:02.551Z,31.02
2023-04-16T06:31:31.188Z,35.25
2023-04-16T06:36:58.831Z,36.53
2023-04-16T06:42:26.273Z,38.45
2023-04-16T06:47:54.241Z,37.97
2023-04-16T06:53:24.600Z,36.90
2023-04-16T06:58:53.281Z,36.88
2023-04-16T07:04:21.436Z,34.00
2023-04-16T07:09:49.023Z,33.70
2023-04-16T07:15:16.578Z,37.42
2023-04-16T07:20:44.133Z,30.33
2023-04-16T07:26:12.186Z,28.17
2023-04-16T07:31:39.235Z,28.55
2023-04-16T07:37:06.123Z,26.70
2023-04-16T07:42:33.142Z,26.90
2023-04-16T07:48:00.245Z,26.23
2023-04-16T07:53:27.251Z,24.20
2023-04-16T07:58:54.323Z,24.80
2023-04-16T08:04:25.690Z,23.85
2023-04-16T08:09:54.204Z,24.90
2023-04-16T08:15:21.451Z,20.58
2023-04-16T08:20:49.422Z,22.27
2023-04-16T08:26:18.044Z,22.25
2023-04-16T08:31:46.040Z,24.35
2023-04-16T08:37:13.603Z,22.83
2023-04-16T08:42:48.959Z,19.95
2023-04-16T08:48:16.767Z,19.92
2023-04-16T08:53:52.433Z,20.50
2023-04-16T08:59:19.686Z,17.48
2023-04-16T09:04:50.289Z,13.23
2023-04-16T09:10:18.025Z,13.00
2023-04-16T09:15:45.760Z,9.93
2023-04-16T09:21:13.946Z,9.77
2023-04-16T09:26:43.825Z,11.35
2023-04-16T09:32:12.221Z,8.73
2023-04-16T09:37:39.134Z,10.18
2023-04-16T09:43:17.185Z,8.45
2023-04-16T09:48:46.264Z,7.82
2023-04-16T09:54:13.895Z,7.63
2023-04-16T09:59:41.626Z,6.63
2023-04-16T10:05:09.046Z,8.52
2023-04-16T10:10:36.709Z,7.18
2023-04-16T10:16:03.880Z,11.15
2023-04-16T10:21:34.485Z,9.93
2023-04-16T10:27:01.920Z,6.22
2023-04-16T10:32:31.645Z,5.18
2023-04-16T10:38:14.904Z,6.45
2023-04-16T10:43:47.094Z,9.25
2023-04-16T10:54:50.821Z,8.30
2023-04-16T11:00:24.189Z,8.50
2023-04-16T11:05:52.592Z,8.18
2023-04-16T11:11:21.051Z,3.72
2023-04-16T11:16:49.140Z,5.55
2023-04-16T11:22:18.154Z,4.40
2023-04-16T11:27:46.130Z,3.75
2023-04-16T11:33:13.950Z,3.13
2023-04-16T11:38:43.152Z,6.15
2023-04-16T11:44:18.697Z,3.78
2023-04-16T11:49:45.838Z,1.52
2023-04-16T11:55:13.067Z,3.22
2023-04-16T12:00:41.846Z,2.40
2023-04-16T12:06:10.082Z,1.40
2023-04-16T12:11:39.950Z,2.35
2023-04-16T12:17:20.982Z,2.88
2023-04-16T12:22:53.018Z,3.05
2023-04-16T12:28:31.457Z,3.47
2023-04-16T12:34:04.412Z,3.22
2023-04-16T12:39:32.143Z,2.67
2023-04-16T12:44:58.774Z,2.83
2023-04-16T12:50:26.449Z,3.55
2023-04-16T12:55:54.284Z,4.45
2023-04-16T13:01:22.328Z,4.28
2023-04-16T13:06:50.483Z,4.10
2023-04-16T13:12:18.524Z,3.78
2023-04-16T13:17:46.778Z,7.00
2023-04-16T13:23:14.254Z,4.07
2023-04-16T13:28:42.194Z,5.00
2023-04-16T13:34:09.571Z,7.30
2023-04-16T13:39:37.265Z,6.57
2023-04-16T13:45:04.830Z,4.68
2023-04-16T13:50:32.349Z,6.05
2023-04-16T13:56:00.693Z,5.18
2023-04-16T14:01:28.926Z,5.63
2023-04-16T14:06:56.584Z,5.05
2023-04-16T14:12:24.363Z,5.28
2023-04-16T14:17:51.560Z,5.75
2023-04-16T14:23:19.524Z,7.22
2023-04-16T14:28:48.004Z,6.82
2023-04-16T14:34:15.761Z,6.40
2023-04-16T14:39:43.418Z,5.47
2023-04-16T14:45:10.555Z,7.40
2023-04-16T14:50:39.353Z,5.07
2023-04-16T14:56:06.693Z,5.57
2023-04-16T15:01:36.280Z,5.90
2023-04-16T15:07:03.335Z,5.97
2023-04-16T15:12:31.452Z,6.90
2023-04-16T15:17:58.927Z,6.13
2023-04-16T15:23:28.935Z,5.70
2023-04-16T15:28:56.753Z,6.15
2023-04-16T15:34:24.521Z,6.80
2023-04-16T15:39:53.167Z,5.93
2023-04-16T15:45:21.414Z,5.55
2023-04-16T15:50:49.126Z,5.45
2023-04-16T15:56:17.326Z,5.55
2023-04-16T16:01:44.604Z,5.05
2023-04-16T16:07:12.579Z,5.25
2023-04-16T16:12:41.602Z,5.07
2023-04-16T16:18:09.357Z,5.50
2023-04-16T16:23:36.457Z,4.70
2023-04-16T16:29:04.789Z,6.00
2023-04-16T16:34:31.597Z,5.93
2023-04-16T16:39:58.519Z,6.55
2023-04-16T16:45:29.111Z,6.50
2023-04-16T16:50:56.581Z,9.00
2023-04-16T16:56:23.851Z,8.93
2023-04-16T17:01:51.983Z,9.48
2023-04-16T17:07:19.681Z,6.93
2023-04-16T17:12:50.794Z,10.70
2023-04-16T17:18:18.367Z,6.95
2023-04-16T17:23:46.121Z,5.80
2023-04-16T17:29:14.081Z,8.57
2023-04-16T17:34:41.940Z,6.72
2023-04-16T17:40:10.233Z,7.85
2023-04-16T17:45:38.939Z,5.75
2023-04-16T17:51:14.750Z,7.85
2023-04-16T17:56:41.612Z,7.35
2023-04-16T18:02:08.999Z,5.75
2023-04-16T18:07:37.829Z,7.65
2023-04-16T18:13:05.318Z,12.35
2023-04-16T18:18:32.683Z,13.75
2023-04-16T18:24:01.190Z,10.18
2023-04-16T18:29:29.551Z,11.93
2023-04-16T18:34:57.189Z,11.30
2023-04-16T18:40:25.094Z,12.00
2023-04-16T18:45:52.460Z,14.88
2023-04-16T18:51:19.970Z,17.05
2023-04-16T18:56:47.472Z,16.60
2023-04-16T19:02:17.240Z,16.13
2023-04-16T19:07:45.182Z,15.82
2023-04-16T19:13:12.348Z,19.45
2023-04-16T19:18:40.146Z,19.67
2023-04-16T19:24:07.625Z,15.73
2023-04-16T19:29:35.867Z,17.15
2023-04-16T19:35:04.761Z,19.15
2023-04-16T19:40:32.000Z,22.02
2023-04-16T19:45:59.297Z,17.85
2023-04-16T19:51:31.857Z,22.70
2023-04-16T19:57:02.334Z,23.70
2023-04-16T20:02:30.147Z,33.17
2023-04-16T20:07:57.692Z,29.67
2023-04-16T20:13:25.344Z,30.88
2023-04-16T20:18:54.572Z,31.42
2023-04-16T20:24:24.395Z,28.20
2023-04-16T20:29:52.076Z,27.88
2023-04-16T20:35:19.291Z,31.05
2023-04-16T20:40:47.342Z,25.95
2023-04-16T20:46:14.595Z,28.63
2023-04-16T20:51:42.686Z,29.65
2023-04-16T20:57:10.511Z,28.95
2023-04-16T21:02:37.525Z,24.50
2023-04-16T21:08:06.019Z,24.75
2023-04-16T21:13:33.511Z,25.17
2023-04-16T21:19:00.536Z,23.10
2023-04-16T21:24:27.213Z,24.55
2023-04-16T21:29:54.311Z,24.42
2023-04-16T21:35:21.659Z,25.02
2023-04-16T21:40:54.038Z,24.88
2023-04-16T21:46:21.642Z,22.55
2023-04-16T21:51:50.662Z,25.77
2023-04-16T21:57:18.619Z,26.63
2023-04-16T22:02:47.021Z,24.17
2023-04-16T22:08:24.225Z,21.42
2023-04-16T22:13:52.418Z,28.00
2023-04-16T22:19:20.100Z,27.88
2023-04-16T22:24:47.610Z,23.63
2023-04-16T22:30:14.825Z,25.30
2023-04-16T22:35:42.305Z,30.92
2023-04-16T22:41:09.631Z,29.10
2023-04-16T22:46:36.723Z,30.48
2023-04-16T22:52:03.304Z,32.17
2023-04-16T22:57:31.287Z,34.70
2023-04-16T23:03:01.654Z,36.83
2023-04-16T23:08:28.729Z,33.42
2023-04-16T23:13:55.997Z,38.63
2023-04-16T23:19:23.531Z,41.00
2023-04-16T23:24:50.775Z,41.45
2023-04-16T23:30:18.246Z,40.38
2023-04-16T23:35:47.606Z,41.90
2023-04-16T23:41:14.810Z,42.65
2023-04-16T23:46:41.982Z,44.13
2023-04-16T23:52:09.866Z,44.17
2023-04-16T23:57:36.971Z,47.85
